Time;durP1;ratioP1;P1;durP2;ratioP2;P2;SDS_P1;SDS_P2;PMS_P1;PMS_P2;Temp;Humidity;BMP_temperature;BMP_pressure;BME280_temperature;BME280_humidity;BME280_pressure;Samples;Min_cycle;Max_cycle;Signal;HPM_P1;HPM_P2
2022/07/24 00:02:02;;;;;;;12.82;11.52;;;;;;;;;;4995052;28;92519;-71
2022/07/24 00:04:29;;;;;;;17.52;10.30;;;;;;;;;;4996019;28;93177;-71
2022/07/24 00:07:01;;;;;;;12.15;10.95;;;;;;;;;;4995856;27;93473;-71
2022/07/24 00:09:27;;;;;;;15.90;10.85;;;;;;;;;;4996565;28;92502;-71
2022/07/24 00:11:54;;;;;;;16.38;11.48;;;;;;;;;;4994483;28;95229;-71
2022/07/24 00:14:20;;;;;;;12.80;11.60;;;;;;;;;;4995907;28;94297;-71
2022/07/24 00:16:46;;;;;;;21.05;11.82;;;;;;;;;;4999850;28;92447;-71
2022/07/24 00:19:13;;;;;;;18.45;11.77;;;;;;;;;;4995359;28;94115;-72
2022/07/24 00:21:39;;;;;;;14.40;11.93;;;;;;;;;;4994400;28;93692;-71
2022/07/24 00:24:06;;;;;;;12.95;11.45;;;;;;;;;;4995632;28;93837;-71
2022/07/24 00:26:32;;;;;;;15.52;13.30;;;;;;;;;;4995523;28;93596;-71
2022/07/24 00:28:58;;;;;;;13.52;11.93;;;;;;;;;;4993769;28;91826;-71
2022/07/24 00:31:25;;;;;;;13.07;11.45;;;;;;;;;;4995012;28;92484;-71
2022/07/24 00:33:57;;;;;;;13.70;12.50;;;;;;;;;;4996495;28;93442;-71
2022/07/24 00:36:23;;;;;;;15.80;12.82;;;;;;;;;;4996838;28;94904;-71
2022/07/24 00:38:49;;;;;;;14.98;12.68;;;;;;;;;;4994589;28;94369;-71
2022/07/24 00:41:16;;;;;;;17.95;12.55;;;;;;;;;;4994554;28;93004;-71
2022/07/24 00:43:58;;;;;;;15.18;12.52;;;;;;;;;;4994628;28;93575;-71
2022/07/24 00:46:24;;;;;;;13.85;12.50;;;;;;;;;;4993532;28;93037;-71
2022/07/24 00:48:51;;;;;;;17.73;13.02;;;;;;;;;;4997874;28;92565;-71
2022/07/24 00:51:17;;;;;;;16.48;13.13;;;;;;;;;;4996527;28;93520;-71
2022/07/24 00:53:44;;;;;;;15.20;13.68;;;;;;;;;;4995196;28;92994;-71
2022/07/24 00:56:12;;;;;;;16.70;13.43;;;;;;;;;;4995377;27;93072;-71
2022/07/24 00:58:38;;;;;;;14.52;13.30;;;;;;;;;;4997808;28;93952;-72
2022/07/24 01:01:04;;;;;;;16.95;12.75;;;;;;;;;;4993290;28;94834;-71
2022/07/24 01:03:31;;;;;;;16.45;14.13;;;;;;;;;;4993783;28;94159;-71
2022/07/24 01:05:58;;;;;;;15.07;13.20;;;;;;;;;;4994336;28;93438;-71
2022/07/24 01:08:24;;;;;;;18.33;13.18;;;;;;;;;;4994701;28;92503;-71
2022/07/24 01:10:52;;;;;;;14.40;12.93;;;;;;;;;;4994043;28;94074;-71
2022/07/24 01:13:18;;;;;;;16.60;13.43;;;;;;;;;;4993594;28;93599;-71
2022/07/24 01:15:46;;;;;;;15.25;13.85;;;;;;;;;;4994549;28;93112;-71
2022/07/24 01:18:13;;;;;;;16.02;13.88;;;;;;;;;;4994000;28;93032;-71
2022/07/24 01:20:39;;;;;;;15.88;13.65;;;;;;;;;;4997062;28;93484;-71
2022/07/24 01:23:05;;;;;;;17.33;14.02;;;;;;;;;;4995071;28;93175;-71
2022/07/24 01:25:32;;;;;;;14.35;12.55;;;;;;;;;;4992088;28;96223;-71
2022/07/24 01:27:58;;;;;;;15.07;13.30;;;;;;;;;;4994088;28;92434;-71
2022/07/24 01:30:24;;;;;;;14.95;13.43;;;;;;;;;;4993904;28;93101;-71
2022/07/24 01:32:51;;;;;;;14.93;13.45;;;;;;;;;;4993879;28;94144;-71
2022/07/24 01:35:18;;;;;;;14.27;12.93;;;;;;;;;;4994284;28;92523;-70
2022/07/24 01:37:49;;;;;;;14.57;13.27;;;;;;;;;;4993435;28;94067;-71
2022/07/24 01:40:15;;;;;;;17.42;13.27;;;;;;;;;;4995351;28;93208;-70
2022/07/24 01:42:41;;;;;;;18.27;12.45;;;;;;;;;;4997626;28;91857;-71
2022/07/24 01:45:08;;;;;;;13.18;12.00;;;;;;;;;;4992668;28;93440;-71
2022/07/24 01:47:34;;;;;;;14.02;12.63;;;;;;;;;;4994502;28;92470;-71
2022/07/24 01:50:01;;;;;;;17.98;12.60;;;;;;;;;;4992219;28;94965;-70
2022/07/24 01:52:27;;;;;;;13.98;12.68;;;;;;;;;;4993048;28;93753;-70
2022/07/24 01:54:53;;;;;;;12.95;11.65;;;;;;;;;;4994808;27;92551;-71
2022/07/24 01:57:20;;;;;;;14.05;12.35;;;;;;;;;;4994897;28;93914;-70
2022/07/24 01:59:46;;;;;;;13.48;12.30;;;;;;;;;;4992546;28;93015;-70
2022/07/24 02:02:13;;;;;;;15.27;11.95;;;;;;;;;;4993626;28;92510;-70
2022/07/24 02:04:40;;;;;;;12.77;11.57;;;;;;;;;;4996699;28;93757;-70
2022/07/24 02:07:06;;;;;;;16.63;11.55;;;;;;;;;;4993378;28;91699;-70
2022/07/24 02:09:32;;;;;;;14.65;12.27;;;;;;;;;;4993078;28;93485;-71
2022/07/24 02:11:59;;;;;;;12.45;11.38;;;;;;;;;;4993336;28;96113;-70
2022/07/24 02:14:25;;;;;;;12.57;11.45;;;;;;;;;;4991962;28;95341;-70
2022/07/24 02:16:51;;;;;;;14.30;11.93;;;;;;;;;;4992533;28;95445;-70
2022/07/24 02:19:18;;;;;;;11.55;10.65;;;;;;;;;;4993812;28;93458;-70
2022/07/24 02:21:44;;;;;;;12.68;11.30;;;;;;;;;;4992392;28;93067;-70
2022/07/24 02:24:11;;;;;;;13.65;12.35;;;;;;;;;;4994176;28;92772;-70
2022/07/24 02:26:37;;;;;;;13.40;11.73;;;;;;;;;;4996164;28;94254;-70
2022/07/24 02:29:03;;;;;;;14.55;12.05;;;;;;;;;;4994355;28;93912;-70
2022/07/24 02:31:31;;;;;;;15.20;11.90;;;;;;;;;;4995943;28;93445;-70
2022/07/24 02:33:57;;;;;;;17.27;12.32;;;;;;;;;;4993431;28;92492;-70
2022/07/24 02:36:24;;;;;;;14.20;12.43;;;;;;;;;;4994854;28;93095;-71
2022/07/24 02:38:51;;;;;;;16.65;12.07;;;;;;;;;;4991103;28;97088;-71
2022/07/24 02:41:17;;;;;;;14.40;12.20;;;;;;;;;;4992254;28;93022;-70
2022/07/24 02:43:44;;;;;;;13.63;12.27;;;;;;;;;;4993316;28;93439;-71
2022/07/24 02:46:10;;;;;;;13.82;12.50;;;;;;;;;;4995895;28;93971;-70
2022/07/24 02:48:36;;;;;;;15.70;12.85;;;;;;;;;;4994391;28;92897;-71
2022/07/24 02:51:03;;;;;;;13.98;12.55;;;;;;;;;;4993132;28;94133;-70
2022/07/24 02:53:29;;;;;;;14.70;12.82;;;;;;;;;;4993398;28;92462;-70
2022/07/24 02:55:56;;;;;;;14.10;12.57;;;;;;;;;;4993107;28;93953;-70
2022/07/24 02:58:22;;;;;;;13.98;12.43;;;;;;;;;;4993247;28;94353;-70
2022/07/24 03:00:48;;;;;;;18.42;13.48;;;;;;;;;;4992618;28;92492;-71
2022/07/24 03:03:15;;;;;;;14.95;13.43;;;;;;;;;;4991295;28;96163;-70
2022/07/24 03:05:41;;;;;;;14.75;13.38;;;;;;;;;;4993115;28;94004;-71
2022/07/24 03:08:08;;;;;;;14.70;13.38;;;;;;;;;;4996360;28;92465;-71
2022/07/24 03:10:34;;;;;;;16.42;14.02;;;;;;;;;;4991671;28;94912;-71
2022/07/24 03:13:01;;;;;;;14.05;12.85;;;;;;;;;;4991780;28;93080;-70
2022/07/24 03:15:27;;;;;;;15.60;14.10;;;;;;;;;;4993890;27;93202;-71
2022/07/24 03:17:54;;;;;;;16.52;12.93;;;;;;;;;;4991357;28;94186;-71
2022/07/24 03:20:23;;;;;;;17.77;14.25;;;;;;;;;;4992471;28;91725;-71
2022/07/24 03:22:50;;;;;;;15.63;14.18;;;;;;;;;;4992661;28;93413;-71
2022/07/24 03:25:17;;;;;;;14.68;13.18;;;;;;;;;;4993368;28;93474;-71
2022/07/24 03:27:43;;;;;;;17.67;14.35;;;;;;;;;;4991074;28;95909;-71
2022/07/24 03:30:10;;;;;;;16.13;14.48;;;;;;;;;;4999328;27;95458;-71
2022/07/24 03:32:36;;;;;;;17.23;15.43;;;;;;;;;;4995881;28;92542;-71
2022/07/24 03:35:03;;;;;;;17.60;14.95;;;;;;;;;;4988615;28;93151;-71
2022/07/24 03:37:30;;;;;;;15.75;14.25;;;;;;;;;;4994676;28;93759;-71
2022/07/24 03:39:56;;;;;;;17.00;15.23;;;;;;;;;;4995963;28;93551;-71
2022/07/24 03:42:23;;;;;;;17.50;15.43;;;;;;;;;;4995945;28;94185;-71
2022/07/24 03:44:49;;;;;;;16.95;15.15;;;;;;;;;;4995373;28;92389;-71
2022/07/24 03:47:16;;;;;;;16.65;14.90;;;;;;;;;;4995507;28;92946;-71
2022/07/24 03:49:43;;;;;;;20.50;15.70;;;;;;;;;;4995542;28;93534;-71
2022/07/24 03:52:09;;;;;;;16.92;15.20;;;;;;;;;;4996647;28;96463;-71
2022/07/24 03:54:37;;;;;;;16.15;14.70;;;;;;;;;;4995418;28;95439;-71
2022/07/24 03:57:03;;;;;;;17.63;15.82;;;;;;;;;;4999738;28;93918;-71
2022/07/24 03:59:30;;;;;;;19.98;15.88;;;;;;;;;;4994629;28;93018;-71
2022/07/24 04:01:56;;;;;;;25.58;16.50;;;;;;;;;;4995252;28;93012;-71
2022/07/24 04:04:22;;;;;;;16.35;14.48;;;;;;;;;;4995707;28;94227;-71
2022/07/24 04:06:49;;;;;;;17.25;15.50;;;;;;;;;;4995937;28;92922;-71
2022/07/24 04:09:15;;;;;;;20.50;16.20;;;;;;;;;;4996173;28;93206;-71
2022/07/24 04:11:57;;;;;;;19.05;15.57;;;;;;;;;;4994490;28;93885;-71
2022/07/24 04:14:23;;;;;;;19.00;14.77;;;;;;;;;;4998921;28;92492;-71
2022/07/24 04:16:50;;;;;;;19.27;16.38;;;;;;;;;;4993023;28;95652;-71
2022/07/24 04:19:17;;;;;;;20.60;15.48;;;;;;;;;;4994653;28;92924;-71
2022/07/24 04:21:43;;;;;;;18.83;15.55;;;;;;;;;;4995084;28;92901;-71
2022/07/24 04:24:09;;;;;;;18.95;17.05;;;;;;;;;;4995407;28;93341;-71
2022/07/24 04:26:36;;;;;;;18.98;16.98;;;;;;;;;;4994917;28;92928;-71
2022/07/24 04:29:02;;;;;;;25.48;16.60;;;;;;;;;;4996223;28;93243;-71
2022/07/24 04:31:29;;;;;;;19.67;16.25;;;;;;;;;;4995998;28;93317;-71
2022/07/24 04:33:58;;;;;;;17.70;15.75;;;;;;;;;;4995061;28;91774;-71
2022/07/24 04:36:25;;;;;;;19.10;17.23;;;;;;;;;;4998314;28;92986;-71
2022/07/24 04:38:51;;;;;;;19.58;17.63;;;;;;;;;;4994374;28;93365;-71
2022/07/24 04:41:18;;;;;;;20.42;16.58;;;;;;;;;;4992136;28;95286;-71
2022/07/24 04:43:44;;;;;;;19.55;17.40;;;;;;;;;;4994876;28;93325;-71
2022/07/24 04:46:11;;;;;;;18.90;16.90;;;;;;;;;;4986852;28;93003;-71
2022/07/24 04:48:37;;;;;;;21.83;17.33;;;;;;;;;;4994741;28;94102;-71
2022/07/24 04:51:04;;;;;;;19.27;17.25;;;;;;;;;;4994684;28;94098;-71
2022/07/24 04:53:30;;;;;;;23.95;18.05;;;;;;;;;;4996244;27;92836;-71
2022/07/24 04:55:57;;;;;;;20.55;18.45;;;;;;;;;;4997072;28;93200;-70
2022/07/24 04:58:25;;;;;;;20.38;18.13;;;;;;;;;;4995504;28;91747;-71
2022/07/24 05:00:51;;;;;;;20.85;18.73;;;;;;;;;;4994485;28;92765;-71
2022/07/24 05:03:18;;;;;;;19.63;17.70;;;;;;;;;;4994634;28;93358;-71
2022/07/24 05:05:44;;;;;;;19.67;17.60;;;;;;;;;;4998872;28;94933;-71
2022/07/24 05:08:11;;;;;;;27.25;20.02;;;;;;;;;;4993923;28;95638;-71
2022/07/24 05:10:37;;;;;;;20.48;17.92;;;;;;;;;;4993986;28;94018;-71
2022/07/24 05:13:04;;;;;;;20.42;18.33;;;;;;;;;;4994709;28;92517;-71
2022/07/24 05:15:30;;;;;;;21.13;18.40;;;;;;;;;;4993917;28;94513;-71
2022/07/24 05:17:56;;;;;;;20.90;18.65;;;;;;;;;;4997479;28;92576;-71
2022/07/24 05:20:23;;;;;;;23.35;19.83;;;;;;;;;;4994792;28;93993;-71
2022/07/24 05:22:49;;;;;;;21.42;18.63;;;;;;;;;;4994489;28;93464;-72
2022/07/24 05:25:15;;;;;;;25.23;19.15;;;;;;;;;;4995044;28;92577;-72
2022/07/24 05:27:42;;;;;;;25.38;19.77;;;;;;;;;;4994719;28;93391;-71
2022/07/24 05:30:08;;;;;;;23.42;19.35;;;;;;;;;;4992832;28;96676;-72
2022/07/24 05:32:35;;;;;;;23.85;18.92;;;;;;;;;;4994315;28;92710;-71
2022/07/24 05:35:01;;;;;;;20.40;18.33;;;;;;;;;;4994088;28;92967;-72
2022/07/24 05:37:28;;;;;;;25.60;19.10;;;;;;;;;;4993527;28;93438;-72
2022/07/24 05:39:55;;;;;;;20.60;18.33;;;;;;;;;;4998355;28;92531;-71
2022/07/24 05:42:23;;;;;;;25.02;16.65;;;;;;;;;;4999287;28;94204;-72
2022/07/24 05:44:50;;;;;;;20.85;18.60;;;;;;;;;;4992554;28;92578;-71
2022/07/24 05:47:17;;;;;;;22.85;17.75;;;;;;;;;;4988504;28;93558;-72
2022/07/24 05:49:43;;;;;;;24.77;17.77;;;;;;;;;;4985636;28;94431;-73
2022/07/24 05:52:09;;;;;;;21.67;16.25;;;;;;;;;;4980571;27;93064;-71
2022/07/24 05:54:36;;;;;;;20.33;16.70;;;;;;;;;;4981530;28;95293;-71
2022/07/24 05:57:02;;;;;;;17.73;15.90;;;;;;;;;;4986891;28;94263;-71
2022/07/24 05:59:29;;;;;;;16.63;14.18;;;;;;;;;;4990514;28;92839;-71
2022/07/24 06:01:55;;;;;;;15.98;14.45;;;;;;;;;;4993867;28;94007;-71
2022/07/24 06:04:22;;;;;;;16.20;13.60;;;;;;;;;;4993227;28;92555;-71
2022/07/24 06:06:48;;;;;;;15.45;12.98;;;;;;;;;;4993999;27;93073;-72
2022/07/24 06:09:15;;;;;;;14.80;11.88;;;;;;;;;;4993015;28;92905;-71
2022/07/24 06:11:41;;;;;;;18.77;12.90;;;;;;;;;;4995457;28;91761;-71
2022/07/24 06:14:08;;;;;;;14.68;11.27;;;;;;;;;;4993321;28;92602;-72
2022/07/24 06:16:34;;;;;;;12.38;11.07;;;;;;;;;;4994514;27;93130;-73
2022/07/24 06:19:01;;;;;;;13.20;10.23;;;;;;;;;;4991093;28;95459;-72
2022/07/24 06:21:28;;;;;;;11.90;9.60;;;;;;;;;;4991498;28;96534;-72
2022/07/24 06:23:54;;;;;;;13.52;9.40;;;;;;;;;;4995897;28;94267;-72
2022/07/24 06:26:20;;;;;;;8.70;7.78;;;;;;;;;;4992512;28;93955;-72
2022/07/24 06:28:47;;;;;;;9.63;7.90;;;;;;;;;;4995332;28;93406;-72
2022/07/24 06:31:13;;;;;;;8.77;7.75;;;;;;;;;;4994063;28;92583;-72
2022/07/24 06:33:43;;;;;;;8.02;7.18;;;;;;;;;;4986847;28;93106;-72
2022/07/24 06:36:09;;;;;;;8.23;6.80;;;;;;;;;;4991535;28;93535;-73
2022/07/24 06:38:36;;;;;;;7.45;6.78;;;;;;;;;;4990915;28;93493;-73
2022/07/24 06:41:03;;;;;;;7.40;6.70;;;;;;;;;;4994939;28;94415;-73
2022/07/24 06:43:29;;;;;;;9.13;6.30;;;;;;;;;;4994506;28;94921;-72
2022/07/24 06:45:56;;;;;;;6.35;5.75;;;;;;;;;;4989361;28;93047;-73
2022/07/24 06:48:22;;;;;;;6.45;5.43;;;;;;;;;;4996502;28;93545;-72
2022/07/24 06:50:49;;;;;;;6.82;5.22;;;;;;;;;;4993530;28;92524;-72
2022/07/24 06:53:15;;;;;;;7.93;4.68;;;;;;;;;;4994516;28;94827;-70
2022/07/24 06:55:41;;;;;;;5.28;4.05;;;;;;;;;;4985467;28;93484;-71
2022/07/24 06:58:08;;;;;;;8.25;4.30;;;;;;;;;;4989440;28;93021;-73
2022/07/24 07:00:34;;;;;;;3.92;3.63;;;;;;;;;;4993696;28;93258;-72
2022/07/24 07:03:01;;;;;;;8.38;4.13;;;;;;;;;;4996293;28;93229;-73
2022/07/24 07:05:27;;;;;;;6.90;3.78;;;;;;;;;;4987868;28;92978;-70
2022/07/24 07:07:53;;;;;;;3.97;3.58;;;;;;;;;;4982355;28;95916;-71
2022/07/24 07:10:20;;;;;;;3.13;2.92;;;;;;;;;;4985398;28;94129;-71
2022/07/24 07:12:46;;;;;;;4.63;3.28;;;;;;;;;;4992699;28;93950;-72
2022/07/24 07:15:15;;;;;;;3.60;3.03;;;;;;;;;;4989716;28;95484;-72
2022/07/24 07:17:41;;;;;;;4.45;3.17;;;;;;;;;;4987325;28;92934;-72
2022/07/24 07:20:09;;;;;;;3.90;3.00;;;;;;;;;;4983451;28;93949;-72
2022/07/24 07:22:35;;;;;;;3.70;2.80;;;;;;;;;;4989141;28;93231;-72
2022/07/24 07:25:02;;;;;;;2.85;2.42;;;;;;;;;;4990604;28;92763;-72
2022/07/24 07:27:28;;;;;;;9.27;2.40;;;;;;;;;;4999023;28;93360;-71
2022/07/24 07:29:54;;;;;;;5.32;2.50;;;;;;;;;;4990382;28;94481;-71
2022/07/24 07:32:21;;;;;;;3.13;2.60;;;;;;;;;;4980436;28;95829;-72
2022/07/24 07:34:48;;;;;;;4.88;2.28;;;;;;;;;;4987484;28;94226;-72
2022/07/24 07:37:14;;;;;;;2.95;2.40;;;;;;;;;;4986685;28;93293;-72
2022/07/24 07:39:40;;;;;;;2.17;2.03;;;;;;;;;;4983361;28;93709;-71
2022/07/24 07:42:07;;;;;;;2.22;1.90;;;;;;;;;;4989496;27;92540;-71
2022/07/24 07:44:35;;;;;;;2.67;2.35;;;;;;;;;;4985233;28;92552;-71
2022/07/24 07:47:01;;;;;;;3.92;2.35;;;;;;;;;;4994719;28;93340;-73
2022/07/24 07:49:28;;;;;;;2.38;2.17;;;;;;;;;;4994737;28;92936;-73
2022/07/24 07:51:56;;;;;;;2.13;2.00;;;;;;;;;;4988217;28;92835;-73
2022/07/24 07:54:23;;;;;;;2.97;2.20;;;;;;;;;;4986209;28;93336;-73
2022/07/24 07:56:49;;;;;;;4.68;2.20;;;;;;;;;;4992350;28;95137;-73
2022/07/24 07:59:15;;;;;;;3.47;2.33;;;;;;;;;;4991108;28;96244;-73
2022/07/24 08:01:42;;;;;;;8.48;2.55;;;;;;;;;;4993447;28;93560;-72
2022/07/24 08:04:08;;;;;;;3.42;2.33;;;;;;;;;;4977835;28;92896;-72
2022/07/24 08:06:35;;;;;;;2.38;2.08;;;;;;;;;;4974692;28;93737;-73
2022/07/24 08:09:01;;;;;;;2.60;2.15;;;;;;;;;;4976524;28;94472;-73
2022/07/24 08:11:29;;;;;;;4.10;2.30;;;;;;;;;;4981569;28;92519;-73
2022/07/24 08:13:56;;;;;;;4.68;2.15;;;;;;;;;;4976558;28;94204;-72
2022/07/24 08:16:22;;;;;;;3.03;2.22;;;;;;;;;;4975476;28;93286;-73
2022/07/24 08:18:49;;;;;;;3.58;2.58;;;;;;;;;;4981822;28;95516;-73
2022/07/24 08:21:18;;;;;;;3.78;1.80;;;;;;;;;;4984497;28;95699;-75
2022/07/24 08:23:45;;;;;;;2.42;2.10;;;;;;;;;;4978871;28;92582;-75
2022/07/24 08:26:11;;;;;;;2.65;2.20;;;;;;;;;;4993672;28;92865;-73
2022/07/24 08:28:38;;;;;;;5.47;2.58;;;;;;;;;;4987737;28;93454;-73
2022/07/24 08:31:04;;;;;;;6.15;2.40;;;;;;;;;;4997174;27;92480;-73
2022/07/24 08:33:31;;;;;;;4.97;2.20;;;;;;;;;;4993823;28;93469;-72
2022/07/24 08:35:57;;;;;;;3.72;2.00;;;;;;;;;;4996529;28;92762;-72
2022/07/24 08:38:23;;;;;;;11.30;2.05;;;;;;;;;;4989089;28;93009;-72
2022/07/24 08:40:50;;;;;;;3.67;2.00;;;;;;;;;;4995399;28;94099;-72
2022/07/24 08:43:16;;;;;;;4.05;2.25;;;;;;;;;;4995056;28;92521;-72
2022/07/24 08:45:46;;;;;;;3.50;2.45;;;;;;;;;;4977783;28;95043;-71
2022/07/24 08:48:12;;;;;;;6.07;2.05;;;;;;;;;;4995591;28;93195;-72
2022/07/24 08:50:40;;;;;;;2.25;2.05;;;;;;;;;;4995804;28;92536;-73
2022/07/24 08:53:06;;;;;;;4.13;1.90;;;;;;;;;;4999446;28;92460;-72
2022/07/24 08:55:33;;;;;;;4.72;1.75;;;;;;;;;;4995656;28;92443;-72
2022/07/24 08:58:00;;;;;;;2.17;1.70;;;;;;;;;;4996260;28;93128;-72
2022/07/24 09:00:27;;;;;;;2.60;1.70;;;;;;;;;;4995056;28;93596;-72
2022/07/24 09:02:54;;;;;;;3.05;2.75;;;;;;;;;;4996827;28;92355;-72
2022/07/24 09:05:20;;;;;;;2.60;1.92;;;;;;;;;;4996206;28;93215;-72
2022/07/24 09:08:05;;;;;;;6.33;1.90;;;;;;;;;;4994108;28;94494;-72
2022/07/24 09:10:33;;;;;;;2.00;1.90;;;;;;;;;;4988741;28;96416;-71
2022/07/24 09:13:11;;;;;;;2.50;1.70;;;;;;;;;;4993363;28;96351;-72
2022/07/24 09:15:47;;;;;;;3.15;2.00;;;;;;;;;;4997503;28;92488;-72
2022/07/24 09:18:30;;;;;;;2.45;1.80;;;;;;;;;;4994756;28;93398;-72
2022/07/24 09:20:57;;;;;;;2.45;2.00;;;;;;;;;;4994793;28;93488;-72
2022/07/24 09:23:25;;;;;;;3.80;2.08;;;;;;;;;;4994144;28;92514;-72
2022/07/24 09:25:53;;;;;;;4.60;2.10;;;;;;;;;;4994578;28;92828;-74
2022/07/24 09:28:19;;;;;;;6.45;2.38;;;;;;;;;;4995583;28;92863;-74
2022/07/24 09:30:47;;;;;;;3.05;1.88;;;;;;;;;;4994302;28;93062;-74
2022/07/24 09:33:16;;;;;;;2.88;2.10;;;;;;;;;;4995327;28;94077;-74
2022/07/24 09:35:44;;;;;;;2.40;1.75;;;;;;;;;;4992409;28;96310;-72
2022/07/24 09:38:11;;;;;;;3.78;1.90;;;;;;;;;;4999073;27;93861;-72
2022/07/24 09:40:50;;;;;;;1.58;1.48;;;;;;;;;;4994362;28;94287;-72
2022/07/24 09:43:18;;;;;;;2.90;2.00;;;;;;;;;;4993922;28;92571;-72
2022/07/24 09:45:56;;;;;;;2.00;1.80;;;;;;;;;;4993651;28;92920;-72
2022/07/24 09:48:24;;;;;;;2.45;1.75;;;;;;;;;;4994711;28;93459;-72
2022/07/24 09:50:52;;;;;;;10.40;2.13;;;;;;;;;;4994105;28;93041;-72
2022/07/24 09:53:20;;;;;;;1.98;1.88;;;;;;;;;;4995344;28;93303;-72
2022/07/24 09:55:56;;;;;;;2.70;1.88;;;;;;;;;;4994357;28;93768;-72
2022/07/24 09:58:22;;;;;;;2.08;1.92;;;;;;;;;;4994013;28;92874;-72
2022/07/24 10:00:49;;;;;;;2.15;2.05;;;;;;;;;;4996370;28;94850;-72
2022/07/24 10:03:18;;;;;;;3.10;2.03;;;;;;;;;;4992678;28;92598;-72
2022/07/24 10:05:46;;;;;;;3.90;1.70;;;;;;;;;;4990473;28;92959;-72
2022/07/24 10:08:13;;;;;;;2.60;1.83;;;;;;;;;;4994205;28;93441;-72
2022/07/24 10:10:41;;;;;;;2.17;1.95;;;;;;;;;;4993478;28;92823;-71
2022/07/24 10:13:08;;;;;;;4.82;2.08;;;;;;;;;;4994123;28;92438;-72
2022/07/24 10:15:38;;;;;;;2.85;2.20;;;;;;;;;;4987667;28;93580;-71
2022/07/24 10:18:15;;;;;;;1.92;1.83;;;;;;;;;;5000189;28;92454;-72
2022/07/24 10:20:44;;;;;;;6.05;2.42;;;;;;;;;;4994957;28;93764;-72
2022/07/24 10:23:32;;;;;;;2.90;2.58;;;;;;;;;;5013016;28;94026;-72
2022/07/24 10:26:04;;;;;;;2.90;2.00;;;;;;;;;;5011674;28;94895;-72
2022/07/24 10:28:43;;;;;;;3.05;1.67;;;;;;;;;;5012397;28;93217;-72
2022/07/24 10:31:10;;;;;;;2.55;2.17;;;;;;;;;;5014164;28;92660;-72
2022/07/24 10:33:38;;;;;;;2.05;1.83;;;;;;;;;;4994900;28;93007;-71
2022/07/24 10:36:10;;;;;;;1.95;1.85;;;;;;;;;;4986291;28;93583;-71
2022/07/24 10:38:38;;;;;;;2.05;1.90;;;;;;;;;;4992233;28;92549;-71
2022/07/24 10:41:08;;;;;;;1.98;1.80;;;;;;;;;;4987618;28;93285;-71
2022/07/24 10:43:34;;;;;;;2.47;1.92;;;;;;;;;;4986673;28;93492;-71
2022/07/24 10:46:02;;;;;;;2.63;1.95;;;;;;;;;;4987792;28;94230;-71
2022/07/24 10:48:30;;;;;;;3.50;1.75;;;;;;;;;;4992004;28;93661;-71
2022/07/24 10:50:57;;;;;;;3.70;2.25;;;;;;;;;;4983751;28;95122;-70
2022/07/24 10:53:28;;;;;;;1.90;1.60;;;;;;;;;;4990906;28;97087;-71
2022/07/24 10:56:13;;;;;;;1.80;1.70;;;;;;;;;;4979537;28;94386;-72
2022/07/24 10:59:00;;;;;;;1.90;1.80;;;;;;;;;;4981296;28;93654;-71
2022/07/24 11:01:27;;;;;;;5.65;1.77;;;;;;;;;;4974323;28;94950;-70
2022/07/24 11:03:54;;;;;;;2.95;1.90;;;;;;;;;;4980998;28;97977;-71
2022/07/24 11:06:37;;;;;;;3.55;1.90;;;;;;;;;;4978912;28;93127;-70
2022/07/24 11:09:04;;;;;;;2.08;1.98;;;;;;;;;;4975900;28;92615;-70
2022/07/24 11:11:31;;;;;;;2.00;1.88;;;;;;;;;;4976024;28;94319;-69
2022/07/24 11:13:58;;;;;;;1.92;1.83;;;;;;;;;;4979698;28;93745;-70
2022/07/24 11:16:27;;;;;;;2.00;1.90;;;;;;;;;;4983745;28;96938;-70
2022/07/24 11:18:54;;;;;;;3.30;1.80;;;;;;;;;;5007094;28;93409;-70
2022/07/24 11:21:28;;;;;;;2.00;1.80;;;;;;;;;;4979399;28;95872;-70
2022/07/24 11:24:13;;;;;;;2.00;1.90;;;;;;;;;;4979337;28;92829;-70
2022/07/24 11:26:43;;;;;;;1.90;1.80;;;;;;;;;;4987813;28;93214;-70
2022/07/24 11:29:11;;;;;;;2.10;2.00;;;;;;;;;;4978256;28;95575;-70
2022/07/24 11:31:38;;;;;;;4.38;1.90;;;;;;;;;;4981987;28;92634;-70
2022/07/24 11:34:07;;;;;;;2.13;1.70;;;;;;;;;;4978514;28;93540;-71
2022/07/24 11:36:34;;;;;;;2.03;1.92;;;;;;;;;;4974208;28;93227;-70
2022/07/24 11:39:03;;;;;;;1.92;1.83;;;;;;;;;;4982332;28;92525;-71
2022/07/24 11:41:43;;;;;;;2.20;2.00;;;;;;;;;;4978524;27;96113;-71
2022/07/24 11:44:09;;;;;;;4.03;2.20;;;;;;;;;;4976932;28;94214;-70
2022/07/24 11:46:37;;;;;;;5.78;2.10;;;;;;;;;;4977240;28;92551;-70
2022/07/24 11:49:04;;;;;;;2.20;2.10;;;;;;;;;;4979635;28;93889;-71
2022/07/24 11:51:31;;;;;;;1.90;1.70;;;;;;;;;;4982302;28;93694;-70
2022/07/24 11:54:01;;;;;;;2.08;1.98;;;;;;;;;;4996247;28;93972;-70
2022/07/24 11:56:30;;;;;;;2.00;1.90;;;;;;;;;;4984844;28;94918;-71
2022/07/24 11:58:56;;;;;;;5.95;2.05;;;;;;;;;;4977854;28;93137;-71
2022/07/24 12:01:23;;;;;;;3.28;1.90;;;;;;;;;;4984203;28;92500;-70
2022/07/24 12:03:53;;;;;;;2.58;1.90;;;;;;;;;;4979455;28;93523;-70
2022/07/24 12:06:20;;;;;;;4.22;2.10;;;;;;;;;;4979142;28;94953;-71
2022/07/24 12:08:46;;;;;;;2.20;1.80;;;;;;;;;;4979755;28;95543;-71
2022/07/24 12:11:21;;;;;;;2.03;1.90;;;;;;;;;;4979890;28;94024;-72
2022/07/24 12:13:48;;;;;;;5.45;2.15;;;;;;;;;;4989742;28;92579;-71
2022/07/24 12:16:24;;;;;;;4.18;2.05;;;;;;;;;;4997963;28;93628;-71
2022/07/24 12:18:51;;;;;;;1.90;1.80;;;;;;;;;;4983684;28;92589;-70
2022/07/24 12:21:20;;;;;;;2.10;1.88;;;;;;;;;;4980450;28;93077;-71
2022/07/24 12:23:46;;;;;;;1.60;1.50;;;;;;;;;;4975067;28;92451;-71
2022/07/24 12:26:12;;;;;;;2.58;1.65;;;;;;;;;;4979635;28;94186;-71
2022/07/24 12:28:39;;;;;;;2.78;1.73;;;;;;;;;;4977937;28;93106;-71
2022/07/24 12:31:07;;;;;;;2.63;1.85;;;;;;;;;;4978764;28;96263;-71
2022/07/24 12:33:34;;;;;;;2.83;1.58;;;;;;;;;;4979018;28;94450;-70
2022/07/24 12:36:17;;;;;;;2.63;1.88;;;;;;;;;;4986209;28;93616;-71
2022/07/24 12:38:49;;;;;;;1.75;1.65;;;;;;;;;;4977172;28;93568;-71
2022/07/24 12:41:16;;;;;;;2.03;1.60;;;;;;;;;;4984800;27;93056;-71
2022/07/24 12:43:46;;;;;;;1.42;1.33;;;;;;;;;;4977635;28;93350;-70
2022/07/24 12:46:13;;;;;;;3.15;1.50;;;;;;;;;;4976662;28;95346;-71
2022/07/24 12:48:39;;;;;;;2.03;1.92;;;;;;;;;;4981038;28;93072;-71
2022/07/24 12:51:08;;;;;;;2.17;2.03;;;;;;;;;;4978683;28;93260;-71
2022/07/24 12:53:35;;;;;;;2.38;1.92;;;;;;;;;;4982027;28;95212;-71
2022/07/24 12:56:02;;;;;;;2.08;1.67;;;;;;;;;;4987731;28;96286;-71
2022/07/24 12:58:28;;;;;;;2.88;1.60;;;;;;;;;;4983140;28;94622;-71
2022/07/24 13:00:57;;;;;;;1.60;1.50;;;;;;;;;;4977025;28;94105;-71
2022/07/24 13:03:25;;;;;;;1.60;1.50;;;;;;;;;;4986202;28;94408;-71
2022/07/24 13:05:54;;;;;;;2.03;1.77;;;;;;;;;;4981487;28;92587;-71
2022/07/24 13:08:21;;;;;;;4.75;1.67;;;;;;;;;;4980615;28;93263;-71
2022/07/24 13:10:47;;;;;;;2.10;1.90;;;;;;;;;;4978723;28;93520;-72
2022/07/24 13:13:13;;;;;;;3.40;1.70;;;;;;;;;;4989245;28;92253;-72
2022/07/24 13:15:40;;;;;;;2.30;1.80;;;;;;;;;;4981115;28;93770;-71
2022/07/24 13:18:06;;;;;;;4.72;2.20;;;;;;;;;;4986525;28;94543;-71
2022/07/24 13:20:34;;;;;;;1.52;1.42;;;;;;;;;;4978594;28;94907;-71
2022/07/24 13:23:00;;;;;;;3.30;1.60;;;;;;;;;;4979911;28;94749;-71
2022/07/24 13:25:26;;;;;;;2.55;1.88;;;;;;;;;;4977374;28;92781;-72
2022/07/24 13:27:53;;;;;;;1.75;1.63;;;;;;;;;;4982254;28;93713;-72
2022/07/24 13:30:38;;;;;;;2.40;1.58;;;;;;;;;;4981691;28;94104;-72
2022/07/24 13:33:04;;;;;;;1.90;1.80;;;;;;;;;;4978550;28;92567;-71
2022/07/24 13:35:31;;;;;;;2.40;1.70;;;;;;;;;;4979847;28;92612;-71
2022/07/24 13:37:58;;;;;;;2.17;1.70;;;;;;;;;;4977279;28;92676;-71
2022/07/24 13:40:24;;;;;;;2.00;1.80;;;;;;;;;;4982003;28;94470;-71
2022/07/24 13:42:51;;;;;;;2.65;1.63;;;;;;;;;;4978418;28;94251;-71
2022/07/24 13:45:17;;;;;;;2.55;1.60;;;;;;;;;;4976236;28;96968;-71
2022/07/24 13:47:44;;;;;;;1.80;1.70;;;;;;;;;;4978494;28;95423;-71
2022/07/24 13:50:10;;;;;;;3.10;1.92;;;;;;;;;;4975294;28;96711;-71
2022/07/24 13:52:37;;;;;;;2.08;1.42;;;;;;;;;;4985444;28;92716;-71
2022/07/24 13:55:04;;;;;;;4.90;1.60;;;;;;;;;;4988033;28;93206;-71
2022/07/24 13:57:30;;;;;;;3.58;1.73;;;;;;;;;;4997696;28;93499;-71
2022/07/24 13:59:57;;;;;;;4.15;2.00;;;;;;;;;;4977543;28;93864;-71
2022/07/24 14:02:23;;;;;;;1.75;1.65;;;;;;;;;;4980575;28;92898;-71
2022/07/24 14:04:49;;;;;;;1.70;1.60;;;;;;;;;;4977481;28;93107;-71
2022/07/24 14:07:16;;;;;;;1.90;1.80;;;;;;;;;;4976039;28;94211;-71
2022/07/24 14:09:42;;;;;;;3.10;1.70;;;;;;;;;;4975572;28;96077;-70
2022/07/24 14:12:09;;;;;;;2.92;1.60;;;;;;;;;;4974634;28;93101;-70
2022/07/24 14:14:39;;;;;;;1.65;1.55;;;;;;;;;;4978956;28;93571;-70
2022/07/24 14:17:06;;;;;;;1.52;1.42;;;;;;;;;;4976302;27;93448;-70
2022/07/24 14:19:32;;;;;;;1.88;1.77;;;;;;;;;;4981555;28;92810;-71
2022/07/24 14:21:58;;;;;;;1.98;1.88;;;;;;;;;;4978498;28;93749;-72
2022/07/24 14:24:25;;;;;;;1.75;1.65;;;;;;;;;;4982596;28;93411;-72
2022/07/24 14:26:51;;;;;;;3.25;1.50;;;;;;;;;;4980881;28;93615;-72
2022/07/24 14:29:18;;;;;;;1.70;1.60;;;;;;;;;;4979859;28;94070;-71
2022/07/24 14:31:45;;;;;;;1.92;1.58;;;;;;;;;;4974983;28;93927;-72
2022/07/24 14:34:11;;;;;;;3.22;1.98;;;;;;;;;;4976877;28;97231;-72